createdAt,value
2022-08-19T00:02:27.350Z,24.70
2022-08-19T00:07:58.717Z,24.65
2022-08-19T00:13:30.359Z,24.62
2022-08-19T00:19:01.831Z,24.59
2022-08-19T00:24:33.701Z,24.50
2022-08-19T00:30:07.497Z,24.48
2022-08-19T00:35:39.729Z,24.44
2022-08-19T00:41:14.498Z,24.38
2022-08-19T00:46:55.390Z,24.33
2022-08-19T00:52:34.147Z,24.27
2022-08-19T00:58:08.969Z,24.25
2022-08-19T01:03:56.872Z,24.21
2022-08-19T01:09:31.030Z,24.08
2022-08-19T01:15:03.060Z,23.94
2022-08-19T01:20:35.810Z,23.92
2022-08-19T01:26:07.817Z,23.92
2022-08-19T01:31:40.469Z,23.93
2022-08-19T01:37:13.160Z,23.89
2022-08-19T01:42:44.372Z,23.87
2022-08-19T01:48:16.226Z,23.83
2022-08-19T01:53:52.293Z,23.77
2022-08-19T01:59:24.520Z,23.70
2022-08-19T02:04:55.657Z,23.66
2022-08-19T02:10:27.844Z,23.61
2022-08-19T02:15:59.173Z,23.60
2022-08-19T02:21:31.302Z,23.62
2022-08-19T02:27:02.561Z,23.57
2022-08-19T02:32:33.543Z,23.56
2022-08-19T02:38:26.478Z,23.52
2022-08-19T02:44:30.358Z,23.45
2022-08-19T02:49:53.521Z,23.44
2022-08-19T02:55:24.929Z,23.40
2022-08-19T03:00:57.785Z,23.36
2022-08-19T03:06:29.315Z,23.33
2022-08-19T03:12:00.897Z,23.33
2022-08-19T03:17:32.398Z,23.30
2022-08-19T03:23:03.543Z,23.27
2022-08-19T03:28:35.271Z,23.19
2022-08-19T03:34:08.047Z,23.12
2022-08-19T03:39:39.839Z,23.08
2022-08-19T03:45:11.622Z,23.03
2022-08-19T03:50:42.930Z,22.97
2022-08-19T03:56:15.502Z,22.94
2022-08-19T04:01:46.956Z,22.88
2022-08-19T04:07:22.490Z,22.86
2022-08-19T04:12:53.692Z,22.82
2022-08-19T04:18:25.317Z,22.81
2022-08-19T04:23:57.318Z,22.62
2022-08-19T04:29:28.505Z,22.21
2022-08-19T04:35:02.176Z,21.90
2022-08-19T04:41:10.245Z,21.65
2022-08-19T04:46:50.919Z,21.51
2022-08-19T04:52:22.907Z,21.53
2022-08-19T04:57:55.756Z,21.57
2022-08-19T05:03:30.562Z,21.63
2022-08-19T05:09:33.115Z,21.60
2022-08-19T05:15:22.878Z,21.58
2022-08-19T05:21:12.585Z,21.54
2022-08-19T05:26:47.525Z,21.51
2022-08-19T05:32:18.916Z,21.54
2022-08-19T05:37:50.050Z,21.52
2022-08-19T05:43:26.655Z,21.54
2022-08-19T05:48:57.703Z,21.60
2022-08-19T05:54:29.185Z,21.63
2022-08-19T06:00:02.963Z,21.65
2022-08-19T06:05:49.589Z,21.70
2022-08-19T06:11:46.893Z,21.76
2022-08-19T06:17:20.645Z,21.82
2022-08-19T06:22:52.803Z,21.83
2022-08-19T06:28:24.906Z,21.88
2022-08-19T06:33:56.430Z,21.95
2022-08-19T06:39:32.443Z,22.03
2022-08-19T06:45:09.197Z,22.11
2022-08-19T06:50:41.027Z,22.17
2022-08-19T06:56:12.596Z,22.27
2022-08-19T07:01:50.024Z,22.36
2022-08-19T07:07:29.024Z,22.48
2022-08-19T07:13:04.839Z,22.50
2022-08-19T07:18:40.373Z,22.51
2022-08-19T07:24:17.493Z,22.57
2022-08-19T07:29:48.913Z,22.59
2022-08-19T07:35:29.762Z,22.68
2022-08-19T07:41:02.016Z,22.82
2022-08-19T07:46:33.429Z,22.88
2022-08-19T07:52:08.369Z,23.00
2022-08-19T07:57:40.175Z,23.12
2022-08-19T08:03:11.762Z,23.12
2022-08-19T08:09:11.123Z,23.14
2022-08-19T08:14:50.289Z,23.14
2022-08-19T08:20:31.306Z,23.11
2022-08-19T08:26:04.229Z,23.05
2022-08-19T08:31:35.482Z,23.04
2022-08-19T08:37:07.296Z,23.08
2022-08-19T08:42:45.414Z,23.07
2022-08-19T08:48:24.427Z,23.13
2022-08-19T08:54:01.039Z,23.10
2022-08-19T08:59:37.110Z,23.08
2022-08-19T09:05:16.454Z,23.09
2022-08-19T09:10:55.217Z,23.12
2022-08-19T09:16:28.880Z,23.10
2022-08-19T09:22:01.887Z,23.08
2022-08-19T09:27:42.505Z,23.06
2022-08-19T09:33:15.048Z,23.16
2022-08-19T09:38:46.874Z,23.25
2022-08-19T09:44:21.952Z,23.31
2022-08-19T09:49:53.689Z,23.36
2022-08-19T09:55:31.983Z,23.40
2022-08-19T10:01:06.373Z,23.46
2022-08-19T10:06:46.921Z,23.55
2022-08-19T10:12:20.430Z,23.61
2022-08-19T10:17:55.211Z,23.66
2022-08-19T10:23:27.185Z,23.70
2022-08-19T10:29:09.306Z,23.77
2022-08-19T10:34:48.700Z,23.83
2022-08-19T10:40:20.520Z,23.88
2022-08-19T10:45:59.627Z,23.88
2022-08-19T10:51:51.068Z,23.85
2022-08-19T10:57:27.927Z,23.84
2022-08-19T11:03:08.041Z,23.81
2022-08-19T11:08:41.143Z,23.82
2022-08-19T11:14:15.209Z,23.88
2022-08-19T11:19:46.340Z,23.93
2022-08-19T11:25:17.552Z,23.95
2022-08-19T11:30:48.902Z,23.98
2022-08-19T11:36:22.025Z,24.00
2022-08-19T11:41:53.671Z,24.04
2022-08-19T11:47:25.238Z,24.12
2022-08-19T11:52:57.789Z,24.15
2022-08-19T11:58:34.273Z,24.22
2022-08-19T12:04:06.396Z,24.33
2022-08-19T12:09:39.742Z,24.47
2022-08-19T12:15:15.624Z,24.60
2022-08-19T12:20:48.713Z,24.61
2022-08-19T12:26:21.495Z,24.62
2022-08-19T12:31:53.645Z,24.71
2022-08-19T12:37:27.788Z,24.77
2022-08-19T12:42:58.947Z,24.89
2022-08-19T12:48:34.855Z,24.96
2022-08-19T12:54:07.818Z,25.00
2022-08-19T12:59:44.405Z,24.97
2022-08-19T13:05:26.567Z,24.97
2022-08-19T13:10:59.630Z,25.03
2022-08-19T13:16:31.933Z,25.17
2022-08-19T13:22:03.643Z,25.36
2022-08-19T13:27:35.649Z,25.48
2022-08-19T13:33:16.288Z,25.47
2022-08-19T13:38:48.483Z,25.41
2022-08-19T13:44:20.733Z,25.38
2022-08-19T13:49:52.260Z,25.46
2022-08-19T13:55:28.052Z,25.42
2022-08-19T14:01:04.950Z,25.38
2022-08-19T14:06:41.122Z,25.32
2022-08-19T14:12:14.400Z,25.33
2022-08-19T14:17:47.864Z,25.41
2022-08-19T14:23:21.358Z,25.49
2022-08-19T14:28:53.445Z,25.59
2022-08-19T14:34:24.830Z,25.67
2022-08-19T14:39:56.605Z,25.80
2022-08-19T14:45:29.551Z,25.78
2022-08-19T14:51:10.279Z,25.72
2022-08-19T14:57:00.585Z,25.70
2022-08-19T15:02:35.555Z,25.69
2022-08-19T15:08:09.295Z,25.69
2022-08-19T15:13:40.877Z,25.64
2022-08-19T15:19:13.188Z,25.64
2022-08-19T15:24:47.802Z,25.67
2022-08-19T15:30:25.697Z,25.70
2022-08-19T15:35:58.446Z,25.72
2022-08-19T15:41:31.523Z,25.72
2022-08-19T15:47:02.688Z,25.70
2022-08-19T15:52:33.859Z,25.69
2022-08-19T15:58:30.020Z,25.69
2022-08-19T16:04:20.796Z,25.69
2022-08-19T16:09:52.415Z,25.71
2022-08-19T16:15:23.928Z,25.70
2022-08-19T16:20:54.891Z,25.64
2022-08-19T16:26:31.064Z,25.58
2022-08-19T16:32:13.197Z,25.48
2022-08-19T16:37:45.059Z,25.37
2022-08-19T16:43:16.381Z,25.29
2022-08-19T16:48:47.968Z,25.24
2022-08-19T16:54:19.062Z,25.18
2022-08-19T16:59:52.566Z,25.14
2022-08-19T17:05:23.762Z,25.10
2022-08-19T17:11:17.069Z,25.09
2022-08-19T17:16:47.967Z,25.14
2022-08-19T17:22:19.252Z,25.24
2022-08-19T17:27:51.758Z,25.33
2022-08-19T17:33:23.894Z,25.39
2022-08-19T17:38:56.244Z,25.41
2022-08-19T17:44:27.204Z,25.39
2022-08-19T17:49:58.257Z,25.36
2022-08-19T17:55:29.311Z,25.32
2022-08-19T18:01:02.792Z,25.29
2022-08-19T18:06:36.848Z,25.23
2022-08-19T18:12:10.039Z,25.19
2022-08-19T18:17:41.966Z,25.15
2022-08-19T18:23:44.928Z,25.10
2022-08-19T18:29:05.018Z,25.02
2022-08-19T18:34:36.991Z,24.97
2022-08-19T18:40:27.795Z,24.91
2022-08-19T18:46:17.436Z,24.86
2022-08-19T18:51:49.731Z,24.80
2022-08-19T18:57:25.173Z,24.76
2022-08-19T19:02:57.882Z,24.70
2022-08-19T19:08:28.937Z,24.64
2022-08-19T19:14:03.931Z,24.61
2022-08-19T19:19:35.526Z,24.56
2022-08-19T19:25:08.435Z,24.52
2022-08-19T19:30:39.673Z,24.47
2022-08-19T19:36:11.567Z,24.43
2022-08-19T19:41:43.087Z,24.38
2022-08-19T19:47:15.776Z,24.35
2022-08-19T19:52:47.536Z,24.31
2022-08-19T19:58:18.937Z,24.28
2022-08-19T20:03:55.343Z,24.25
2022-08-19T20:09:43.688Z,24.23
2022-08-19T20:15:18.036Z,24.21
2022-08-19T20:20:50.350Z,24.17
2022-08-19T20:26:32.481Z,24.14
2022-08-19T20:32:05.433Z,24.11
2022-08-19T20:37:37.587Z,24.09
2022-08-19T20:43:11.134Z,24.04
2022-08-19T20:48:43.125Z,24.01
2022-08-19T20:54:15.097Z,23.99
2022-08-19T20:59:46.262Z,23.95
2022-08-19T21:05:17.416Z,23.93
2022-08-19T21:10:50.813Z,23.89
2022-08-19T21:16:22.312Z,23.87
2022-08-19T21:21:53.700Z,23.85
2022-08-19T21:27:25.070Z,23.83
2022-08-19T21:32:56.372Z,23.80
2022-08-19T21:38:27.731Z,23.78
2022-08-19T21:43:58.873Z,23.74
2022-08-19T21:49:30.132Z,23.71
2022-08-19T21:55:07.038Z,23.69
2022-08-19T22:00:39.444Z,23.68
2022-08-19T22:06:11.066Z,23.63
2022-08-19T22:11:43.666Z,23.62
2022-08-19T22:17:14.874Z,23.58
2022-08-19T22:22:50.159Z,23.55
2022-08-19T22:28:27.853Z,23.51
2022-08-19T22:33:59.500Z,23.48
2022-08-19T22:39:30.799Z,23.45
2022-08-19T22:45:02.003Z,23.43
2022-08-19T22:50:33.149Z,23.41
2022-08-19T22:56:06.082Z,23.38
2022-08-19T23:01:37.448Z,23.39
2022-08-19T23:07:09.497Z,23.35
2022-08-19T23:12:45.257Z,23.32
2022-08-19T23:18:16.594Z,23.31
2022-08-19T23:23:48.041Z,23.27
2022-08-19T23:29:37.756Z,23.23
2022-08-19T23:35:09.182Z,23.18
2022-08-19T23:40:40.584Z,23.15
2022-08-19T23:46:13.534Z,23.12
2022-08-19T23:51:44.800Z,23.09
2022-08-19T23:57:15.871Z,23.02
